createdAt,value
2022-08-18T00:01:36.685Z,29.74
2022-08-18T00:04:35.375Z,29.74
2022-08-18T00:06:52.311Z,29.74
2022-08-18T00:09:18.775Z,29.74
2022-08-18T00:11:45.598Z,29.72
2022-08-18T00:14:22.730Z,29.73
2022-08-18T00:16:52.038Z,29.73
2022-08-18T00:19:18.506Z,29.72
2022-08-18T00:21:45.079Z,29.71
2022-08-18T00:24:11.613Z,29.71
2022-08-18T00:26:38.193Z,29.72
2022-08-18T00:29:04.872Z,29.71
2022-08-18T00:31:32.330Z,29.70
2022-08-18T00:34:00.329Z,29.69
2022-08-18T00:36:27.354Z,29.69
2022-08-18T00:38:53.929Z,29.69
2022-08-18T00:41:21.490Z,29.69
2022-08-18T00:43:50.392Z,29.67
2022-08-18T00:46:28.021Z,29.69
2022-08-18T00:48:54.662Z,29.69
2022-08-18T00:51:26.457Z,29.67
2022-08-18T00:54:09.117Z,29.66
2022-08-18T00:56:41.740Z,29.66
2022-08-18T00:59:16.342Z,29.66
2022-08-18T01:01:44.624Z,29.66
2022-08-18T01:04:26.519Z,29.64
2022-08-18T01:07:00.694Z,29.63
2022-08-18T01:09:27.253Z,29.63
2022-08-18T01:11:54.112Z,29.62
2022-08-18T01:14:20.788Z,29.63
2022-08-18T01:17:07.823Z,29.63
2022-08-18T01:19:53.981Z,29.64
2022-08-18T01:22:35.877Z,29.62
2022-08-18T01:25:21.718Z,29.61
2022-08-18T01:27:52.796Z,29.62
2022-08-18T01:30:25.414Z,29.61
2022-08-18T01:32:52.747Z,29.59
2022-08-18T01:35:23.346Z,29.61
2022-08-18T01:37:49.968Z,29.60
2022-08-18T01:41:17.610Z,29.59
2022-08-18T01:43:06.893Z,29.58
2022-08-18T01:45:33.528Z,29.59
2022-08-18T01:48:00.706Z,29.58
2022-08-18T01:50:27.596Z,29.58
2022-08-18T01:52:54.070Z,29.58
2022-08-18T01:55:21.087Z,29.59
2022-08-18T01:57:47.686Z,29.57
2022-08-18T02:00:17.980Z,29.57
2022-08-18T02:02:44.958Z,29.57
2022-08-18T02:05:16.807Z,29.57
2022-08-18T02:07:43.454Z,29.58
2022-08-18T02:10:12.203Z,29.59
2022-08-18T02:12:40.973Z,29.56
2022-08-18T02:15:08.985Z,29.57
2022-08-18T02:17:43.127Z,29.56
2022-08-18T02:20:13.251Z,29.57
2022-08-18T02:22:40.112Z,29.56
2022-08-18T02:25:07.283Z,29.55
2022-08-18T02:27:35.247Z,29.56
2022-08-18T02:30:04.752Z,29.56
2022-08-18T02:32:32.861Z,29.54
2022-08-18T02:34:59.473Z,29.55
2022-08-18T02:37:26.105Z,29.54
2022-08-18T02:39:52.640Z,29.55
2022-08-18T02:42:19.301Z,29.55
2022-08-18T02:44:45.803Z,29.53
2022-08-18T02:47:12.387Z,29.54
2022-08-18T02:49:38.924Z,29.54
2022-08-18T02:52:06.107Z,29.53
2022-08-18T02:54:32.964Z,29.51
2022-08-18T02:56:59.489Z,29.52
2022-08-18T02:59:27.744Z,29.52
2022-08-18T03:01:56.247Z,29.52
2022-08-18T03:04:29.408Z,29.51
2022-08-18T03:06:58.418Z,29.53
2022-08-18T03:09:25.585Z,29.52
2022-08-18T03:11:53.479Z,29.52
2022-08-18T03:14:20.814Z,29.51
2022-08-18T03:16:53.587Z,29.52
2022-08-18T03:19:31.886Z,29.52
2022-08-18T03:22:03.177Z,29.50
2022-08-18T03:24:32.455Z,29.49
2022-08-18T03:27:00.275Z,29.49
2022-08-18T03:29:32.107Z,29.49
2022-08-18T03:32:04.367Z,29.48
2022-08-18T03:34:31.617Z,29.47
2022-08-18T03:36:59.154Z,29.47
2022-08-18T03:39:27.801Z,29.48
2022-08-18T03:41:59.999Z,29.48
2022-08-18T03:44:30.740Z,29.48
2022-08-18T03:46:57.852Z,29.47
2022-08-18T03:49:24.402Z,29.47
2022-08-18T03:51:51.769Z,29.47
2022-08-18T03:54:18.852Z,29.47
2022-08-18T03:56:46.588Z,29.46
2022-08-18T03:59:19.142Z,29.44
2022-08-18T04:01:47.319Z,29.46
2022-08-18T04:04:21.242Z,29.46
2022-08-18T04:06:51.593Z,29.44
2022-08-18T04:09:19.584Z,29.44
2022-08-18T04:11:46.565Z,29.45
2022-08-18T04:14:16.716Z,29.42
2022-08-18T04:16:43.718Z,29.43
2022-08-18T04:19:13.587Z,29.43
2022-08-18T04:21:42.334Z,29.44
2022-08-18T04:24:11.181Z,29.43
2022-08-18T04:26:40.739Z,29.43
2022-08-18T04:29:09.072Z,29.43
2022-08-18T04:31:36.449Z,29.41
2022-08-18T04:34:03.701Z,29.40
2022-08-18T04:36:34.176Z,29.41
2022-08-18T04:39:01.633Z,29.41
2022-08-18T04:41:29.461Z,29.41
2022-08-18T04:44:01.488Z,29.39
2022-08-18T04:46:29.508Z,29.40
2022-08-18T04:49:01.261Z,29.40
2022-08-18T04:52:37.547Z,29.41
2022-08-18T04:54:16.356Z,29.39
2022-08-18T04:56:43.652Z,29.39
2022-08-18T04:59:14.701Z,29.38
2022-08-18T05:01:45.652Z,29.37
2022-08-18T05:04:13.630Z,29.37
2022-08-18T05:06:41.269Z,29.35
2022-08-18T05:09:10.270Z,29.27
2022-08-18T05:11:37.817Z,29.18
2022-08-18T05:14:07.161Z,29.09
2022-08-18T05:16:36.575Z,29.05
2022-08-18T05:19:21.940Z,29.06
2022-08-18T05:21:51.515Z,28.91
2022-08-18T05:24:20.251Z,28.81
2022-08-18T05:26:47.562Z,28.68
2022-08-18T05:29:18.640Z,28.62
2022-08-18T05:31:46.863Z,28.56
2022-08-18T05:34:13.382Z,28.42
2022-08-18T05:36:48.605Z,28.35
2022-08-18T05:39:15.820Z,28.33
2022-08-18T05:41:46.955Z,28.20
2022-08-18T05:44:17.555Z,28.24
2022-08-18T05:46:55.677Z,28.18
2022-08-18T05:49:26.335Z,28.00
2022-08-18T05:51:59.480Z,27.86
2022-08-18T05:54:56.639Z,27.83
2022-08-18T05:57:27.987Z,27.86
2022-08-18T05:59:55.075Z,27.79
2022-08-18T06:02:48.248Z,27.89
2022-08-18T06:05:26.862Z,27.92
2022-08-18T06:08:08.473Z,28.05
2022-08-18T06:10:37.311Z,28.11
2022-08-18T06:13:07.895Z,28.13
2022-08-18T06:15:48.685Z,28.12
2022-08-18T06:18:18.680Z,28.09
2022-08-18T06:21:06.777Z,28.14
2022-08-18T06:23:51.834Z,28.14
2022-08-18T06:26:27.383Z,28.13
2022-08-18T06:29:32.169Z,28.17
2022-08-18T06:32:20.093Z,28.16
2022-08-18T06:35:20.772Z,28.17
2022-08-18T06:38:27.840Z,28.22
2022-08-18T06:41:10.181Z,28.13
2022-08-18T06:44:03.279Z,28.17
2022-08-18T06:46:48.575Z,28.20
2022-08-18T06:49:26.560Z,28.19
2022-08-18T06:51:53.242Z,28.21
2022-08-18T06:54:19.648Z,28.17
2022-08-18T06:56:51.702Z,28.13
2022-08-18T06:59:20.145Z,28.08
2022-08-18T07:01:50.955Z,28.09
2022-08-18T07:04:41.346Z,28.10
2022-08-18T07:07:17.446Z,28.05
2022-08-18T07:09:44.262Z,28.02
2022-08-18T07:12:18.423Z,28.10
2022-08-18T07:14:54.102Z,28.15
2022-08-18T07:17:43.744Z,28.22
2022-08-18T07:20:24.988Z,28.20
2022-08-18T07:22:59.815Z,28.24
2022-08-18T07:25:42.542Z,28.35
2022-08-18T07:29:02.550Z,28.40
2022-08-18T07:31:39.654Z,28.47
2022-08-18T07:34:25.656Z,28.43
2022-08-18T07:37:02.696Z,28.52
2022-08-18T07:39:38.760Z,28.58
2022-08-18T07:43:00.881Z,28.66
2022-08-18T07:45:37.725Z,28.72
2022-08-18T07:48:36.943Z,28.81
2022-08-18T07:51:20.764Z,28.84
2022-08-18T07:54:25.362Z,28.92
2022-08-18T07:57:23.168Z,28.99
2022-08-18T08:00:17.339Z,28.93
2022-08-18T08:03:06.856Z,29.03
2022-08-18T08:05:42.347Z,28.94
2022-08-18T08:08:14.598Z,29.05
2022-08-18T08:11:18.696Z,29.06
2022-08-18T08:14:01.333Z,29.09
2022-08-18T08:16:36.947Z,29.09
2022-08-18T08:19:42.529Z,29.02
2022-08-18T08:22:59.865Z,29.01
2022-08-18T08:25:47.751Z,28.89
2022-08-18T08:28:17.675Z,28.95
2022-08-18T08:31:25.604Z,28.93
2022-08-18T08:33:55.920Z,28.94
2022-08-18T08:36:33.362Z,28.84
2022-08-18T08:39:39.201Z,28.75
2022-08-18T08:42:30.464Z,28.61
2022-08-18T08:45:01.059Z,28.51
2022-08-18T08:47:48.048Z,28.47
2022-08-18T08:50:20.448Z,28.55
2022-08-18T08:53:02.482Z,28.61
2022-08-18T08:55:34.254Z,28.70
2022-08-18T08:58:29.184Z,28.80
2022-08-18T09:00:56.439Z,28.84
2022-08-18T09:03:39.484Z,28.92
2022-08-18T09:06:14.097Z,28.96
2022-08-18T09:09:09.194Z,29.02
2022-08-18T09:11:56.958Z,29.07
2022-08-18T09:14:54.094Z,29.08
2022-08-18T09:17:50.980Z,29.12
2022-08-18T09:20:47.194Z,29.14
2022-08-18T09:23:26.371Z,29.18
2022-08-18T09:25:56.569Z,29.19
2022-08-18T09:28:56.428Z,29.17
2022-08-18T09:31:25.433Z,29.19
2022-08-18T09:34:10.794Z,29.18
2022-08-18T09:36:59.841Z,29.17
2022-08-18T09:39:55.217Z,29.18
2022-08-18T09:42:50.398Z,29.20
2022-08-18T09:45:34.278Z,29.22
2022-08-18T09:48:32.002Z,29.20
2022-08-18T09:51:20.888Z,29.28
2022-08-18T09:53:52.284Z,29.33
2022-08-18T09:56:54.249Z,29.34
2022-08-18T09:59:34.905Z,29.39
2022-08-18T10:02:14.160Z,29.44
2022-08-18T10:04:51.528Z,29.47
2022-08-18T10:07:43.308Z,29.52
2022-08-18T10:10:59.036Z,29.58
2022-08-18T10:13:16.191Z,29.65
2022-08-18T10:16:10.974Z,29.69
2022-08-18T10:18:50.092Z,29.73
2022-08-18T10:21:27.687Z,29.77
2022-08-18T10:24:29.841Z,29.79
2022-08-18T10:26:54.777Z,29.81
2022-08-18T10:29:24.792Z,29.80
2022-08-18T10:31:58.515Z,29.81
2022-08-18T10:34:40.111Z,29.79
2022-08-18T10:37:47.220Z,29.82
2022-08-18T10:40:21.556Z,29.84
2022-08-18T10:42:47.932Z,29.85
2022-08-18T10:45:22.181Z,29.86
2022-08-18T10:48:16.628Z,29.87
2022-08-18T10:50:55.695Z,29.86
2022-08-18T10:53:51.669Z,29.82
2022-08-18T10:56:41.955Z,29.85
2022-08-18T10:59:44.005Z,29.88
2022-08-18T11:02:50.819Z,29.92
2022-08-18T11:05:21.999Z,29.94
2022-08-18T11:07:52.223Z,29.97
2022-08-18T11:10:57.864Z,30.01
2022-08-18T11:13:44.591Z,30.10
2022-08-18T11:16:25.047Z,30.16
2022-08-18T11:18:58.543Z,30.21
2022-08-18T11:21:43.401Z,30.26
2022-08-18T11:24:28.576Z,30.33
2022-08-18T11:26:58.871Z,30.36
2022-08-18T11:29:35.850Z,30.44
2022-08-18T11:32:27.049Z,30.50
2022-08-18T11:34:56.671Z,30.57
2022-08-18T11:41:02.326Z,30.70
2022-08-18T11:43:10.508Z,30.76
2022-08-18T11:45:44.266Z,30.80
2022-08-18T11:48:35.947Z,30.87
2022-08-18T11:51:17.469Z,30.93
2022-08-18T11:53:55.610Z,30.98
2022-08-18T11:56:38.006Z,31.00
2022-08-18T11:59:52.459Z,31.02
2022-08-18T12:02:23.786Z,31.10
2022-08-18T12:04:53.867Z,31.11
2022-08-18T12:07:35.730Z,31.16
2022-08-18T12:10:26.065Z,31.20
2022-08-18T12:12:55.741Z,31.24
2022-08-18T12:15:47.403Z,31.27
2022-08-18T12:18:28.107Z,31.10
2022-08-18T12:20:57.521Z,30.99
2022-08-18T12:23:24.182Z,30.99
2022-08-18T12:25:51.828Z,30.96
2022-08-18T12:28:19.838Z,30.99
2022-08-18T12:30:49.138Z,31.07
2022-08-18T12:33:25.524Z,31.07
2022-08-18T12:35:52.666Z,31.07
2022-08-18T12:38:19.207Z,31.10
2022-08-18T12:40:45.906Z,31.15
2022-08-18T12:43:12.456Z,31.15
2022-08-18T12:45:39.676Z,31.17
2022-08-18T12:48:08.517Z,31.27
2022-08-18T12:50:49.753Z,31.33
2022-08-18T12:56:19.687Z,31.41
2022-08-18T12:58:46.571Z,31.45
2022-08-18T13:01:13.466Z,31.46
2022-08-18T13:03:45.341Z,31.46
2022-08-18T13:06:19.865Z,31.45
2022-08-18T13:08:49.872Z,31.51
2022-08-18T13:11:21.650Z,31.55
2022-08-18T13:13:52.989Z,31.54
2022-08-18T13:16:30.553Z,31.48
2022-08-18T13:19:07.162Z,31.40
2022-08-18T13:21:40.931Z,31.33
2022-08-18T13:24:09.421Z,31.36
2022-08-18T13:26:42.377Z,31.38
2022-08-18T13:29:12.741Z,31.33
2022-08-18T13:31:41.020Z,31.43
2022-08-18T13:34:19.089Z,31.40
2022-08-18T13:36:46.128Z,31.42
2022-08-18T13:39:16.519Z,31.43
2022-08-18T13:41:45.668Z,31.45
2022-08-18T13:44:18.721Z,31.39
2022-08-18T13:46:48.163Z,31.39
2022-08-18T13:49:18.376Z,31.41
2022-08-18T13:51:59.090Z,31.34
2022-08-18T13:54:35.251Z,31.37
2022-08-18T13:57:03.257Z,31.43
2022-08-18T13:59:33.112Z,31.47
2022-08-18T14:02:05.886Z,31.50
2022-08-18T14:04:36.189Z,31.54
2022-08-18T14:07:07.222Z,31.56
2022-08-18T14:09:41.787Z,31.59
2022-08-18T14:12:25.984Z,31.60
2022-08-18T14:14:55.692Z,31.63
2022-08-18T14:17:26.620Z,31.63
2022-08-18T14:20:22.316Z,31.64
2022-08-18T14:23:21.680Z,31.65
2022-08-18T14:26:09.298Z,31.66
2022-08-18T14:28:35.983Z,31.65
2022-08-18T14:31:07.072Z,31.65
2022-08-18T14:33:51.088Z,31.65
2022-08-18T14:36:19.888Z,31.64
2022-08-18T14:38:47.017Z,31.63
2022-08-18T14:41:18.922Z,31.63
2022-08-18T14:44:04.580Z,31.62
2022-08-18T14:46:33.204Z,31.60
2022-08-18T14:49:03.902Z,31.58
2022-08-18T14:51:34.859Z,31.58
2022-08-18T14:54:02.055Z,31.56
2022-08-18T14:56:29.491Z,31.55
2022-08-18T14:58:56.477Z,31.54
2022-08-18T15:01:24.660Z,31.52
2022-08-18T15:03:54.510Z,31.52
2022-08-18T15:06:23.014Z,31.50
2022-08-18T15:08:57.226Z,31.48
2022-08-18T15:11:24.468Z,31.48
2022-08-18T15:13:51.596Z,31.47
2022-08-18T15:16:26.946Z,31.44
2022-08-18T15:18:58.551Z,31.44
2022-08-18T15:21:43.732Z,31.42
2022-08-18T15:24:28.653Z,31.42
2022-08-18T15:27:03.154Z,31.40
2022-08-18T15:29:33.324Z,31.37
2022-08-18T15:32:02.215Z,31.35
2022-08-18T15:34:32.908Z,31.35
2022-08-18T15:37:14.083Z,31.33
2022-08-18T15:39:44.268Z,31.31
2022-08-18T15:42:13.662Z,31.30
2022-08-18T15:44:44.797Z,31.28
2022-08-18T15:47:11.462Z,31.30
2022-08-18T15:49:38.530Z,31.27
2022-08-18T15:52:05.187Z,31.26
2022-08-18T15:54:39.153Z,31.24
2022-08-18T15:57:38.452Z,31.23
2022-08-18T16:00:01.061Z,31.20
2022-08-18T16:02:27.668Z,31.18
2022-08-18T16:04:54.411Z,31.18
2022-08-18T16:07:39.919Z,31.17
2022-08-18T16:10:08.556Z,31.16
2022-08-18T16:12:36.209Z,31.15
2022-08-18T16:15:09.758Z,31.13
2022-08-18T16:17:36.358Z,31.10
2022-08-18T16:20:02.912Z,31.09
2022-08-18T16:22:29.457Z,31.09
2022-08-18T16:24:56.157Z,31.07
2022-08-18T16:27:22.692Z,31.06
2022-08-18T16:29:49.814Z,31.03
2022-08-18T16:32:16.745Z,31.03
2022-08-18T16:34:43.464Z,31.02
2022-08-18T16:37:10.446Z,31.02
2022-08-18T16:39:37.041Z,31.00
2022-08-18T16:42:04.223Z,30.99
2022-08-18T16:44:32.797Z,30.97
2022-08-18T16:47:01.583Z,30.96
2022-08-18T16:49:29.033Z,30.94
2022-08-18T16:51:55.544Z,30.92
2022-08-18T16:54:22.669Z,30.90
2022-08-18T16:56:49.176Z,30.90
2022-08-18T16:59:33.973Z,30.88
2022-08-18T17:02:18.895Z,30.88
2022-08-18T17:04:45.412Z,30.86
2022-08-18T17:07:11.924Z,30.85
2022-08-18T17:09:38.759Z,30.85
2022-08-18T17:12:06.092Z,30.84
2022-08-18T17:14:33.652Z,30.83
2022-08-18T17:17:00.646Z,30.80
2022-08-18T17:19:33.611Z,30.79
2022-08-18T17:22:05.300Z,30.79
2022-08-18T17:24:32.685Z,30.77
2022-08-18T17:27:26.922Z,30.78
2022-08-18T17:30:07.073Z,30.76
2022-08-18T17:32:49.682Z,30.76
2022-08-18T17:35:28.802Z,30.74
2022-08-18T17:38:07.043Z,30.73
2022-08-18T17:40:44.687Z,30.71
2022-08-18T17:43:15.291Z,30.69
2022-08-18T17:45:43.345Z,30.70
2022-08-18T17:48:14.894Z,30.67
2022-08-18T17:51:08.438Z,30.67
2022-08-18T17:53:36.314Z,30.65
2022-08-18T17:56:21.170Z,30.63
2022-08-18T17:58:56.560Z,30.63
2022-08-18T18:01:25.859Z,30.62
2022-08-18T18:03:53.243Z,30.61
2022-08-18T18:06:35.024Z,30.59
2022-08-18T18:09:07.824Z,30.57
2022-08-18T18:11:39.140Z,30.56
2022-08-18T18:14:38.817Z,30.55
2022-08-18T18:17:14.474Z,30.54
2022-08-18T18:20:09.346Z,30.53
2022-08-18T18:22:43.855Z,30.53
2022-08-18T18:25:12.933Z,30.51
2022-08-18T18:27:47.430Z,30.50
2022-08-18T18:30:29.814Z,30.49
2022-08-18T18:33:02.712Z,30.47
2022-08-18T18:35:54.848Z,30.45
2022-08-18T18:38:33.209Z,30.45
2022-08-18T18:41:04.073Z,30.42
2022-08-18T18:43:43.577Z,30.40
2022-08-18T18:46:18.374Z,30.41
2022-08-18T18:49:03.134Z,30.38
2022-08-18T18:52:02.285Z,30.37
2022-08-18T18:54:53.430Z,30.37
2022-08-18T18:57:35.084Z,30.38
2022-08-18T19:00:19.879Z,30.35
2022-08-18T19:03:08.073Z,30.33
2022-08-18T19:05:40.249Z,30.32
2022-08-18T19:08:24.179Z,30.31
2022-08-18T19:10:59.029Z,30.31
2022-08-18T19:13:37.559Z,30.27
2022-08-18T19:16:24.237Z,30.27
2022-08-18T19:19:35.120Z,30.28
2022-08-18T19:22:03.536Z,30.26
2022-08-18T19:24:43.050Z,30.27
2022-08-18T19:27:23.415Z,30.23
2022-08-18T19:29:54.194Z,30.23
2022-08-18T19:32:27.199Z,30.23
2022-08-18T19:34:55.689Z,30.22
2022-08-18T19:38:01.852Z,30.20
2022-08-18T19:40:48.133Z,30.18
2022-08-18T19:43:26.651Z,30.17
2022-08-18T19:46:23.194Z,30.16
2022-08-18T19:48:57.700Z,30.16
2022-08-18T19:51:34.163Z,30.16
2022-08-18T19:54:15.871Z,30.13
2022-08-18T19:56:57.284Z,30.14
2022-08-18T19:59:26.644Z,30.14
2022-08-18T20:02:25.409Z,30.12
2022-08-18T20:05:06.096Z,30.11
2022-08-18T20:07:55.718Z,30.10
2022-08-18T20:10:46.200Z,30.08
2022-08-18T20:13:35.324Z,30.09
2022-08-18T20:16:10.641Z,30.08
2022-08-18T20:18:49.046Z,30.08
2022-08-18T20:21:15.659Z,30.07
2022-08-18T20:24:00.582Z,30.03
2022-08-18T20:26:37.634Z,30.05
2022-08-18T20:29:05.045Z,30.05
2022-08-18T20:31:49.073Z,30.02
2022-08-18T20:34:18.243Z,30.02
2022-08-18T20:36:46.990Z,30.02
2022-08-18T20:39:32.349Z,30.00
2022-08-18T20:42:04.607Z,30.00
2022-08-18T20:44:49.799Z,30.00
2022-08-18T20:47:42.670Z,29.99
2022-08-18T20:50:33.566Z,29.97
2022-08-18T20:53:08.554Z,29.98
2022-08-18T20:55:58.205Z,29.96
2022-08-18T20:58:32.129Z,29.96
2022-08-18T21:01:00.159Z,29.96
2022-08-18T21:03:45.533Z,29.94
2022-08-18T21:06:15.363Z,29.95
2022-08-18T21:08:53.354Z,29.93
2022-08-18T21:11:31.827Z,29.94
2022-08-18T21:14:03.738Z,29.95
2022-08-18T21:16:37.986Z,29.93
2022-08-18T21:19:25.263Z,29.91
2022-08-18T21:21:56.740Z,29.92
2022-08-18T21:24:34.267Z,29.91
2022-08-18T21:27:10.315Z,29.90
2022-08-18T21:29:49.176Z,29.91
2022-08-18T21:32:31.359Z,29.89
2022-08-18T21:35:03.327Z,29.89
2022-08-18T21:37:32.778Z,29.89
2022-08-18T21:40:05.148Z,29.89
2022-08-18T21:42:44.207Z,29.88
2022-08-18T21:45:16.710Z,29.86
2022-08-18T21:47:52.525Z,29.87
2022-08-18T21:50:23.716Z,29.87
2022-08-18T21:52:53.650Z,29.88
2022-08-18T21:55:45.383Z,29.86
2022-08-18T21:58:17.795Z,29.87
2022-08-18T22:00:47.888Z,29.83
2022-08-18T22:03:23.913Z,29.84
2022-08-18T22:06:13.863Z,29.85
2022-08-18T22:08:51.403Z,29.83
2022-08-18T22:11:59.956Z,29.81
2022-08-18T22:14:54.721Z,29.82
2022-08-18T22:17:26.799Z,29.82
2022-08-18T22:19:53.767Z,29.81
2022-08-18T22:22:41.466Z,29.81
2022-08-18T22:25:12.108Z,29.80
2022-08-18T22:27:40.115Z,29.79
2022-08-18T22:30:07.102Z,29.79
2022-08-18T22:32:37.606Z,29.78
2022-08-18T22:35:06.449Z,29.79
2022-08-18T22:37:48.704Z,29.78
2022-08-18T22:40:17.405Z,29.79
2022-08-18T22:42:48.494Z,29.78
2022-08-18T22:45:15.056Z,29.76
2022-08-18T22:47:43.307Z,29.78
2022-08-18T22:50:12.423Z,29.77
2022-08-18T22:52:46.426Z,29.75
2022-08-18T22:55:22.104Z,29.75
2022-08-18T22:57:51.400Z,29.72
2022-08-18T23:00:23.012Z,29.71
2022-08-18T23:02:50.510Z,29.71
2022-08-18T23:05:17.096Z,29.70
2022-08-18T23:07:43.609Z,29.70
2022-08-18T23:10:13.781Z,29.69
2022-08-18T23:12:42.641Z,29.70
2022-08-18T23:15:12.144Z,29.71
2022-08-18T23:17:40.692Z,29.74
2022-08-18T23:20:11.922Z,29.72
2022-08-18T23:22:40.138Z,29.72
2022-08-18T23:25:09.164Z,29.71
2022-08-18T23:27:36.566Z,29.72
2022-08-18T23:30:04.849Z,29.71
2022-08-18T23:32:32.098Z,29.70
2022-08-18T23:34:59.093Z,29.70
2022-08-18T23:37:25.550Z,29.70
2022-08-18T23:39:52.123Z,29.69
2022-08-18T23:42:18.660Z,29.69
2022-08-18T23:44:49.545Z,29.68
2022-08-18T23:47:16.559Z,29.69
2022-08-18T23:49:43.058Z,29.67
2022-08-18T23:52:10.161Z,29.67
2022-08-18T23:54:36.713Z,29.67
2022-08-18T23:57:03.261Z,29.66
2022-08-18T23:59:29.980Z,29.66
